sensor_id;sensor_type;location;lat;lon;timestamp;pressure;altitude;pressure_sealevel;temperature
70819;BMP280;58439;51.046;13.692;2022-08-05T00:01:31;99793.38;;;25.17
70819;BMP280;58439;51.046;13.692;2022-08-05T00:04:16;99791.03;;;25.15
70819;BMP280;58439;51.046;13.692;2022-08-05T00:06:44;99791.63;;;25.12
70819;BMP280;58439;51.046;13.692;2022-08-05T00:09:13;99783.91;;;25.11
70819;BMP280;58439;51.046;13.692;2022-08-05T00:11:46;99784.97;;;25.10
70819;BMP280;58439;51.046;13.692;2022-08-05T00:14:22;99784.78;;;25.06
70819;BMP280;58439;51.046;13.692;2022-08-05T00:16:55;99785.41;;;25.03
70819;BMP280;58439;51.046;13.692;2022-08-05T00:19:26;99780.66;;;25.00
70819;BMP280;58439;51.046;13.692;2022-08-05T00:22:10;99790.09;;;24.98
70819;BMP280;58439;51.046;13.692;2022-08-05T00:24:39;99778.69;;;24.92
70819;BMP280;58439;51.046;13.692;2022-08-05T00:27:09;99773.44;;;24.87
70819;BMP280;58439;51.046;13.692;2022-08-05T00:29:43;99782.09;;;24.84
70819;BMP280;58439;51.046;13.692;2022-08-05T00:32:10;99781.91;;;24.80
70819;BMP280;58439;51.046;13.692;2022-08-05T00:34:43;99778.44;;;24.80
70819;BMP280;58439;51.046;13.692;2022-08-05T00:37:32;99782.19;;;24.79
70819;BMP280;58439;51.046;13.692;2022-08-05T00:40:22;99776.94;;;24.74
70819;BMP280;58439;51.046;13.692;2022-08-05T00:42:57;99774.06;;;24.70
70819;BMP280;58439;51.046;13.692;2022-08-05T00:45:24;99779.22;;;24.67
70819;BMP280;58439;51.046;13.692;2022-08-05T00:48:12;99776.53;;;24.67
70819;BMP280;58439;51.046;13.692;2022-08-05T00:50:42;99772.31;;;24.66
70819;BMP280;58439;51.046;13.692;2022-08-05T00:53:14;99774.00;;;24.62
70819;BMP280;58439;51.046;13.692;2022-08-05T00:56:03;99770.31;;;24.58
70819;BMP280;58439;51.046;13.692;2022-08-05T00:58:34;99765.97;;;24.62
70819;BMP280;58439;51.046;13.692;2022-08-05T01:01:03;99770.53;;;24.61
70819;BMP280;58439;51.046;13.692;2022-08-05T01:03:35;99767.53;;;24.63
70819;BMP280;58439;51.046;13.692;2022-08-05T01:06:03;99769.13;;;24.64
70819;BMP280;58439;51.046;13.692;2022-08-05T01:08:33;99773.66;;;24.63
70819;BMP280;58439;51.046;13.692;2022-08-05T01:11:19;99766.06;;;24.57
70819;BMP280;58439;51.046;13.692;2022-08-05T01:13:56;99771.22;;;24.53
70819;BMP280;58439;51.046;13.692;2022-08-05T01:16:54;99762.69;;;24.51
70819;BMP280;58439;51.046;13.692;2022-08-05T01:19:29;99755.75;;;24.50
70819;BMP280;58439;51.046;13.692;2022-08-05T01:22:40;99760.66;;;24.48
70819;BMP280;58439;51.046;13.692;2022-08-05T01:28:32;99757.63;;;24.49
70819;BMP280;58439;51.046;13.692;2022-08-05T01:31:28;99754.78;;;24.46
70819;BMP280;58439;51.046;13.692;2022-08-05T01:34:10;99755.56;;;24.46
70819;BMP280;58439;51.046;13.692;2022-08-05T01:36:58;99754.56;;;24.42
70819;BMP280;58439;51.046;13.692;2022-08-05T01:39:30;99754.91;;;24.41
70819;BMP280;58439;51.046;13.692;2022-08-05T01:42:15;99750.44;;;24.36
70819;BMP280;58439;51.046;13.692;2022-08-05T01:44:45;99751.22;;;24.37
70819;BMP280;58439;51.046;13.692;2022-08-05T01:47:22;99750.94;;;24.38
70819;BMP280;58439;51.046;13.692;2022-08-05T01:50:11;99750.13;;;24.38
70819;BMP280;58439;51.046;13.692;2022-08-05T01:52:45;99752.22;;;24.41
70819;BMP280;58439;51.046;13.692;2022-08-05T01:55:19;99744.00;;;24.37
70819;BMP280;58439;51.046;13.692;2022-08-05T01:57:50;99739.03;;;24.31
70819;BMP280;58439;51.046;13.692;2022-08-05T02:00:43;99740.94;;;24.30
70819;BMP280;58439;51.046;13.692;2022-08-05T02:03:23;99740.59;;;24.32
70819;BMP280;58439;51.046;13.692;2022-08-05T02:06:00;99734.47;;;24.31
70819;BMP280;58439;51.046;13.692;2022-08-05T02:08:49;99736.66;;;24.29
70819;BMP280;58439;51.046;13.692;2022-08-05T02:11:50;99737.75;;;24.28
70819;BMP280;58439;51.046;13.692;2022-08-05T02:14:31;99731.13;;;24.26
70819;BMP280;58439;51.046;13.692;2022-08-05T02:17:11;99724.47;;;24.23
70819;BMP280;58439;51.046;13.692;2022-08-05T02:20:02;99723.19;;;24.21
70819;BMP280;58439;51.046;13.692;2022-08-05T02:22:38;99714.69;;;24.18
70819;BMP280;58439;51.046;13.692;2022-08-05T02:25:18;99715.47;;;24.19
70819;BMP280;58439;51.046;13.692;2022-08-05T02:27:49;99707.25;;;24.15
70819;BMP280;58439;51.046;13.692;2022-08-05T02:30:31;99703.78;;;24.15
70819;BMP280;58439;51.046;13.692;2022-08-05T02:33:02;99708.94;;;24.11
70819;BMP280;58439;51.046;13.692;2022-08-05T02:35:34;99698.03;;;24.08
70819;BMP280;58439;51.046;13.692;2022-08-05T02:38:18;99702.91;;;24.06
70819;BMP280;58439;51.046;13.692;2022-08-05T02:40:54;99698.94;;;24.03
70819;BMP280;58439;51.046;13.692;2022-08-05T02:43:24;99703.00;;;24.01
70819;BMP280;58439;51.046;13.692;2022-08-05T02:45:53;99703.00;;;24.01
70819;BMP280;58439;51.046;13.692;2022-08-05T02:48:22;99699.03;;;23.98
70819;BMP280;58439;51.046;13.692;2022-08-05T02:50:59;99699.84;;;23.99
70819;BMP280;58439;51.046;13.692;2022-08-05T02:53:29;99690.25;;;23.98
70819;BMP280;58439;51.046;13.692;2022-08-05T02:56:08;99692.38;;;23.96
70819;BMP280;58439;51.046;13.692;2022-08-05T02:58:46;99688.16;;;23.95
70819;BMP280;58439;51.046;13.692;2022-08-05T03:01:24;99686.38;;;23.90
70819;BMP280;58439;51.046;13.692;2022-08-05T03:04:00;99690.41;;;23.88
70819;BMP280;58439;51.046;13.692;2022-08-05T03:06:41;99695.28;;;23.86
70819;BMP280;58439;51.046;13.692;2022-08-05T03:09:25;99686.47;;;23.85
70819;BMP280;58439;51.046;13.692;2022-08-05T03:12:09;99685.16;;;23.82
70819;BMP280;58439;51.046;13.692;2022-08-05T03:14:36;99693.78;;;23.79
70819;BMP280;58439;51.046;13.692;2022-08-05T03:17:14;99696.25;;;23.76
70819;BMP280;58439;51.046;13.692;2022-08-05T03:19:41;99701.09;;;23.74
70819;BMP280;58439;51.046;13.692;2022-08-05T03:22:11;99695.25;;;23.72
70819;BMP280;58439;51.046;13.692;2022-08-05T03:24:46;99690.78;;;23.67
70819;BMP280;58439;51.046;13.692;2022-08-05T03:27:19;99689.47;;;23.65
70819;BMP280;58439;51.046;13.692;2022-08-05T03:29:47;99702.13;;;23.59
70819;BMP280;58439;51.046;13.692;2022-08-05T03:32:36;99723.41;;;23.50
70819;BMP280;58439;51.046;13.692;2022-08-05T03:35:04;99728.75;;;23.50
70819;BMP280;58439;51.046;13.692;2022-08-05T03:37:34;99733.66;;;23.43
70819;BMP280;58439;51.046;13.692;2022-08-05T03:40:14;99719.38;;;23.34
70819;BMP280;58439;51.046;13.692;2022-08-05T03:42:58;99719.09;;;23.36
70819;BMP280;58439;51.046;13.692;2022-08-05T03:45:42;99725.22;;;23.36
70819;BMP280;58439;51.046;13.692;2022-08-05T03:48:28;99722.25;;;23.38
70819;BMP280;58439;51.046;13.692;2022-08-05T03:51:16;99718.94;;;23.46
70819;BMP280;58439;51.046;13.692;2022-08-05T03:54:32;99716.19;;;23.51
70819;BMP280;58439;51.046;13.692;2022-08-05T03:57:25;99727.28;;;23.58
70819;BMP280;58439;51.046;13.692;2022-08-05T04:00:11;99727.28;;;23.58
70819;BMP280;58439;51.046;13.692;2022-08-05T04:02:47;99737.75;;;23.55
70819;BMP280;58439;51.046;13.692;2022-08-05T04:05:31;99732.41;;;23.55
70819;BMP280;58439;51.046;13.692;2022-08-05T04:08:07;99730.97;;;23.62
70819;BMP280;58439;51.046;13.692;2022-08-05T04:10:57;99736.78;;;23.64
70819;BMP280;58439;51.046;13.692;2022-08-05T04:13:25;99740.22;;;23.65
70819;BMP280;58439;51.046;13.692;2022-08-05T04:16:13;99739.53;;;23.59
70819;BMP280;58439;51.046;13.692;2022-08-05T04:18:40;99737.75;;;23.55
70819;BMP280;58439;51.046;13.692;2022-08-05T04:21:07;99740.09;;;23.56
70819;BMP280;58439;51.046;13.692;2022-08-05T04:23:38;99742.19;;;23.59
70819;BMP280;58439;51.046;13.692;2022-08-05T04:26:25;99742.31;;;23.68
70819;BMP280;58439;51.046;13.692;2022-08-05T04:29:00;99745.78;;;23.68
70819;BMP280;58439;51.046;13.692;2022-08-05T04:31:33;99737.84;;;23.63
70819;BMP280;58439;51.046;13.692;2022-08-05T04:34:05;99743.72;;;23.65
70819;BMP280;58439;51.046;13.692;2022-08-05T04:36:53;99748.41;;;23.73
70819;BMP280;58439;51.046;13.692;2022-08-05T04:39:22;99738.69;;;23.77
70819;BMP280;58439;51.046;13.692;2022-08-05T04:41:53;99736.94;;;23.87
70819;BMP280;58439;51.046;13.692;2022-08-05T04:44:21;99734.88;;;23.97
70819;BMP280;58439;51.046;13.692;2022-08-05T04:46:59;99746.16;;;24.08
70819;BMP280;58439;51.046;13.692;2022-08-05T04:49:38;99749.22;;;24.15
70819;BMP280;58439;51.046;13.692;2022-08-05T04:52:25;99755.19;;;24.26
70819;BMP280;58439;51.046;13.692;2022-08-05T04:54:54;99751.50;;;24.35
70819;BMP280;58439;51.046;13.692;2022-08-05T04:57:24;99746.34;;;24.39
70819;BMP280;58439;51.046;13.692;2022-08-05T04:59:56;99749.75;;;24.44
70819;BMP280;58439;51.046;13.692;2022-08-05T05:02:25;99747.28;;;24.48
70819;BMP280;58439;51.046;13.692;2022-08-05T05:05:04;99752.09;;;24.60
70819;BMP280;58439;51.046;13.692;2022-08-05T05:07:59;99750.69;;;24.76
70819;BMP280;58439;51.046;13.692;2022-08-05T05:10:30;99749.47;;;24.82
70819;BMP280;58439;51.046;13.692;2022-08-05T05:12:59;99747.97;;;24.90
70819;BMP280;58439;51.046;13.692;2022-08-05T05:15:30;99746.75;;;24.96
70819;BMP280;58439;51.046;13.692;2022-08-05T05:18:17;99745.41;;;25.07
70819;BMP280;58439;51.046;13.692;2022-08-05T05:21:00;99737.34;;;25.21
70819;BMP280;58439;51.046;13.692;2022-08-05T05:23:29;99740.25;;;25.33
70819;BMP280;58439;51.046;13.692;2022-08-05T05:26:16;99742.09;;;25.46
70819;BMP280;58439;51.046;13.692;2022-08-05T05:28:44;99745.63;;;25.55
70819;BMP280;58439;51.046;13.692;2022-08-05T05:31:12;99752.75;;;25.60
70819;BMP280;58439;51.046;13.692;2022-08-05T05:33:39;99755.75;;;25.67
70819;BMP280;58439;51.046;13.692;2022-08-05T05:36:26;99759.13;;;25.81
70819;BMP280;58439;51.046;13.692;2022-08-05T05:38:55;99751.31;;;25.93
70819;BMP280;58439;51.046;13.692;2022-08-05T05:41:23;99748.69;;;26.02
70819;BMP280;58439;51.046;13.692;2022-08-05T05:43:51;99762.53;;;26.04
70819;BMP280;58439;51.046;13.692;2022-08-05T05:46:25;99758.16;;;26.08
70819;BMP280;58439;51.046;13.692;2022-08-05T05:48:52;99757.88;;;26.18
70819;BMP280;58439;51.046;13.692;2022-08-05T05:51:24;99756.94;;;26.23
70819;BMP280;58439;51.046;13.692;2022-08-05T05:53:54;99746.84;;;26.19
70819;BMP280;58439;51.046;13.692;2022-08-05T05:56:30;99748.59;;;26.33
70819;BMP280;58439;51.046;13.692;2022-08-05T05:59:03;99751.94;;;26.47
70819;BMP280;58439;51.046;13.692;2022-08-05T06:01:34;99764.28;;;26.56
70819;BMP280;58439;51.046;13.692;2022-08-05T06:04:10;99766.03;;;26.70
70819;BMP280;58439;51.046;13.692;2022-08-05T06:06:43;99764.31;;;26.91
70819;BMP280;58439;51.046;13.692;2022-08-05T06:09:15;99756.09;;;26.96
70819;BMP280;58439;51.046;13.692;2022-08-05T06:12:02;99773.94;;;27.09
70819;BMP280;58439;51.046;13.692;2022-08-05T06:14:31;99803.63;;;27.21
70819;BMP280;58439;51.046;13.692;2022-08-05T06:16:59;99825.25;;;27.42
70819;BMP280;58439;51.046;13.692;2022-08-05T06:19:46;99826.84;;;27.52
70819;BMP280;58439;51.046;13.692;2022-08-05T06:22:31;99802.94;;;27.59
70819;BMP280;58439;51.046;13.692;2022-08-05T06:25:04;99799.00;;;27.56
70819;BMP280;58439;51.046;13.692;2022-08-05T06:27:54;99846.50;;;27.82
70819;BMP280;58439;51.046;13.692;2022-08-05T06:30:39;99827.97;;;27.97
70819;BMP280;58439;51.046;13.692;2022-08-05T06:33:07;99814.75;;;28.13
70819;BMP280;58439;51.046;13.692;2022-08-05T06:35:36;99849.13;;;28.37
70819;BMP280;58439;51.046;13.692;2022-08-05T06:38:23;99825.59;;;28.55
70819;BMP280;58439;51.046;13.692;2022-08-05T06:41:03;99837.03;;;28.73
70819;BMP280;58439;51.046;13.692;2022-08-05T06:43:30;99840.78;;;28.80
70819;BMP280;58439;51.046;13.692;2022-08-05T06:46:18;99830.75;;;29.10
70819;BMP280;58439;51.046;13.692;2022-08-05T06:48:45;99832.19;;;29.28
70819;BMP280;58439;51.046;13.692;2022-08-05T06:51:25;99843.84;;;29.32
70819;BMP280;58439;51.046;13.692;2022-08-05T06:54:43;99851.66;;;29.46
70819;BMP280;58439;51.046;13.692;2022-08-05T06:57:27;99857.38;;;29.24
70819;BMP280;58439;51.046;13.692;2022-08-05T07:00:18;99863.09;;;28.89
70819;BMP280;58439;51.046;13.692;2022-08-05T07:03:28;99861.63;;;28.92
70819;BMP280;58439;51.046;13.692;2022-08-05T07:06:03;99842.81;;;29.04
70819;BMP280;58439;51.046;13.692;2022-08-05T07:08:47;99859.81;;;29.04
70819;BMP280;58439;51.046;13.692;2022-08-05T07:11:23;99856.38;;;28.95
70819;BMP280;58439;51.046;13.692;2022-08-05T07:13:56;99867.22;;;28.87
70819;BMP280;58439;51.046;13.692;2022-08-05T07:16:53;99868.06;;;28.79
70819;BMP280;58439;51.046;13.692;2022-08-05T07:19:57;99859.97;;;28.58
70819;BMP280;58439;51.046;13.692;2022-08-05T07:22:51;99878.09;;;28.40
70819;BMP280;58439;51.046;13.692;2022-08-05T07:25:21;99881.47;;;28.28
70819;BMP280;58439;51.046;13.692;2022-08-05T07:28:09;99889.59;;;28.20
70819;BMP280;58439;51.046;13.692;2022-08-05T07:30:43;99890.75;;;28.10
70819;BMP280;58439;51.046;13.692;2022-08-05T07:33:16;99885.38;;;28.10
70819;BMP280;58439;51.046;13.692;2022-08-05T07:35:46;99884.75;;;28.05
70819;BMP280;58439;51.046;13.692;2022-08-05T07:38:37;99892.88;;;27.79
70819;BMP280;58439;51.046;13.692;2022-08-05T07:41:17;99895.09;;;27.77
70819;BMP280;58439;51.046;13.692;2022-08-05T07:44:07;99899.19;;;27.91
70819;BMP280;58439;51.046;13.692;2022-08-05T07:46:47;99902.41;;;28.23
70819;BMP280;58439;51.046;13.692;2022-08-05T07:49:17;99903.53;;;28.51
70819;BMP280;58439;51.046;13.692;2022-08-05T07:51:45;99908.00;;;28.47
70819;BMP280;58439;51.046;13.692;2022-08-05T07:54:23;99913.03;;;28.57
70819;BMP280;58439;51.046;13.692;2022-08-05T07:56:57;99920.75;;;28.88
70819;BMP280;58439;51.046;13.692;2022-08-05T07:59:44;99925.28;;;28.96
70819;BMP280;58439;51.046;13.692;2022-08-05T08:02:15;99923.22;;;29.02
70819;BMP280;58439;51.046;13.692;2022-08-05T08:04:45;99919.44;;;29.15
70819;BMP280;58439;51.046;13.692;2022-08-05T08:07:13;99926.56;;;29.20
70819;BMP280;58439;51.046;13.692;2022-08-05T08:09:50;99928.25;;;29.03
70819;BMP280;58439;51.046;13.692;2022-08-05T08:12:22;99939.31;;;28.90
70819;BMP280;58439;51.046;13.692;2022-08-05T08:15:09;99946.84;;;28.67
70819;BMP280;58439;51.046;13.692;2022-08-05T08:17:43;99940.06;;;28.61
70819;BMP280;58439;51.046;13.692;2022-08-05T08:20:20;99949.06;;;28.74
70819;BMP280;58439;51.046;13.692;2022-08-05T08:23:08;99951.66;;;28.61
70819;BMP280;58439;51.046;13.692;2022-08-05T08:25:55;99946.75;;;28.55
70819;BMP280;58439;51.046;13.692;2022-08-05T08:28:27;99949.75;;;28.62
70819;BMP280;58439;51.046;13.692;2022-08-05T08:31:05;99947.34;;;28.60
70819;BMP280;58439;51.046;13.692;2022-08-05T08:33:35;99961.78;;;28.56
70819;BMP280;58439;51.046;13.692;2022-08-05T08:36:07;99961.34;;;28.54
70819;BMP280;58439;51.046;13.692;2022-08-05T08:38:54;99952.44;;;28.62
70819;BMP280;58439;51.046;13.692;2022-08-05T08:41:25;99960.25;;;28.76
70819;BMP280;58439;51.046;13.692;2022-08-05T08:44:24;99952.53;;;28.74
70819;BMP280;58439;51.046;13.692;2022-08-05T08:47:12;99950.44;;;28.80
70819;BMP280;58439;51.046;13.692;2022-08-05T08:50:02;99958.13;;;28.60
70819;BMP280;58439;51.046;13.692;2022-08-05T08:52:57;99957.56;;;28.76
70819;BMP280;58439;51.046;13.692;2022-08-05T08:55:27;99945.22;;;29.04
70819;BMP280;58439;51.046;13.692;2022-08-05T08:58:15;99961.13;;;29.38
70819;BMP280;58439;51.046;13.692;2022-08-05T09:00:43;99960.91;;;29.43
70819;BMP280;58439;51.046;13.692;2022-08-05T09:03:12;99967.50;;;29.55
70819;BMP280;58439;51.046;13.692;2022-08-05T09:05:46;99970.28;;;29.79
70819;BMP280;58439;51.046;13.692;2022-08-05T09:08:33;99958.53;;;29.96
70819;BMP280;58439;51.046;13.692;2022-08-05T09:11:07;99959.78;;;29.98
70819;BMP280;58439;51.046;13.692;2022-08-05T09:13:43;99953.16;;;30.08
70819;BMP280;58439;51.046;13.692;2022-08-05T09:16:31;99953.31;;;30.36
70819;BMP280;58439;51.046;13.692;2022-08-05T09:19:00;99948.91;;;30.56
70819;BMP280;58439;51.046;13.692;2022-08-05T09:21:33;99957.34;;;30.54
70819;BMP280;58439;51.046;13.692;2022-08-05T09:24:24;99955.09;;;30.32
70819;BMP280;58439;51.046;13.692;2022-08-05T09:26:57;99964.78;;;30.33
70819;BMP280;58439;51.046;13.692;2022-08-05T09:29:40;99972.22;;;30.36
70819;BMP280;58439;51.046;13.692;2022-08-05T09:32:13;99967.19;;;30.13
70819;BMP280;58439;51.046;13.692;2022-08-05T09:35:13;99977.97;;;30.46
70819;BMP280;58439;51.046;13.692;2022-08-05T09:37:55;99979.41;;;30.44
70819;BMP280;58439;51.046;13.692;2022-08-05T09:40:42;99967.47;;;30.33
70819;BMP280;58439;51.046;13.692;2022-08-05T09:46:38;99970.63;;;30.71
70819;BMP280;58439;51.046;13.692;2022-08-05T09:49:23;99954.41;;;30.83
70819;BMP280;58439;51.046;13.692;2022-08-05T09:52:34;99944.50;;;30.75
70819;BMP280;58439;51.046;13.692;2022-08-05T09:55:11;99952.44;;;30.96
70819;BMP280;58439;51.046;13.692;2022-08-05T09:57:58;99952.34;;;30.93
70819;BMP280;58439;51.046;13.692;2022-08-05T10:00:26;99949.09;;;30.87
70819;BMP280;58439;51.046;13.692;2022-08-05T10:02:56;99952.56;;;30.87
70819;BMP280;58439;51.046;13.692;2022-08-05T10:05:28;99951.78;;;30.87
70819;BMP280;58439;51.046;13.692;2022-08-05T10:08:27;99956.47;;;31.14
70819;BMP280;58439;51.046;13.692;2022-08-05T10:11:21;99951.31;;;31.37
70819;BMP280;58439;51.046;13.692;2022-08-05T10:15:12;99948.44;;;31.46
70819;BMP280;58439;51.046;13.692;2022-08-05T10:18:21;99952.47;;;31.24
70819;BMP280;58439;51.046;13.692;2022-08-05T10:21:11;99946.19;;;31.20
70819;BMP280;58439;51.046;13.692;2022-08-05T10:24:27;99940.72;;;31.32
70819;BMP280;58439;51.046;13.692;2022-08-05T10:28:54;99940.97;;;31.55
70819;BMP280;58439;51.046;13.692;2022-08-05T10:38:32;99927.31;;;31.36
70819;BMP280;58439;51.046;13.692;2022-08-05T10:47:42;99921.69;;;32.19
70819;BMP280;58439;51.046;13.692;2022-08-05T11:00:28;99921.25;;;32.68
70819;BMP280;58439;51.046;13.692;2022-08-05T11:08:09;99929.22;;;38.09
70819;BMP280;58439;51.046;13.692;2022-08-05T11:25:54;99936.50;;;41.84
70819;BMP280;58439;51.046;13.692;2022-08-05T11:40:14;99932.31;;;46.07
70819;BMP280;58439;51.046;13.692;2022-08-05T11:53:28;99937.06;;;47.01
70819;BMP280;58439;51.046;13.692;2022-08-05T12:14:45;99916.03;;;45.17
70819;BMP280;58439;51.046;13.692;2022-08-05T12:33:13;99896.53;;;42.16
70819;BMP280;58439;51.046;13.692;2022-08-05T13:09:18;99885.06;;;47.29
70819;BMP280;58439;51.046;13.692;2022-08-05T13:20:35;99867.31;;;47.45
70819;BMP280;58439;51.046;13.692;2022-08-05T13:28:03;99870.66;;;47.07
70819;BMP280;58439;51.046;13.692;2022-08-05T13:30:32;99878.09;;;47.99
70819;BMP280;58439;51.046;13.692;2022-08-05T13:33:20;99877.59;;;48.92
70819;BMP280;58439;51.046;13.692;2022-08-05T13:36:35;99879.00;;;49.31
70819;BMP280;58439;51.046;13.692;2022-08-05T13:40:20;99876.84;;;45.62
70819;BMP280;58439;51.046;13.692;2022-08-05T13:43:31;99875.28;;;45.61
70819;BMP280;58439;51.046;13.692;2022-08-05T13:46:17;99892.41;;;46.72
70819;BMP280;58439;51.046;13.692;2022-08-05T13:49:04;99885.31;;;43.99
70819;BMP280;58439;51.046;13.692;2022-08-05T13:51:40;99884.53;;;43.73
70819;BMP280;58439;51.046;13.692;2022-08-05T13:54:16;99885.00;;;42.40
70819;BMP280;58439;51.046;13.692;2022-08-05T13:56:56;99867.19;;;42.61
70819;BMP280;58439;51.046;13.692;2022-08-05T13:59:32;99861.84;;;44.42
70819;BMP280;58439;51.046;13.692;2022-08-05T14:02:23;99876.75;;;45.74
70819;BMP280;58439;51.046;13.692;2022-08-05T14:05:03;99869.47;;;46.26
70819;BMP280;58439;51.046;13.692;2022-08-05T14:07:45;99871.47;;;47.40
70819;BMP280;58439;51.046;13.692;2022-08-05T14:10:31;99875.34;;;46.83
70819;BMP280;58439;51.046;13.692;2022-08-05T14:12:59;99868.44;;;45.84
70819;BMP280;58439;51.046;13.692;2022-08-05T14:15:32;99867.22;;;47.30
70819;BMP280;58439;51.046;13.692;2022-08-05T14:18:19;99874.44;;;47.69
70819;BMP280;58439;51.046;13.692;2022-08-05T14:20:50;99869.41;;;47.59
70819;BMP280;58439;51.046;13.692;2022-08-05T14:23:25;99862.81;;;48.27
70819;BMP280;58439;51.046;13.692;2022-08-05T14:26:09;99856.66;;;47.76
70819;BMP280;58439;51.046;13.692;2022-08-05T14:28:56;99856.53;;;46.05
70819;BMP280;58439;51.046;13.692;2022-08-05T14:31:26;99846.84;;;46.82
70819;BMP280;58439;51.046;13.692;2022-08-05T14:34:13;99841.22;;;47.18
70819;BMP280;58439;51.046;13.692;2022-08-05T14:36:57;99844.81;;;47.43
70819;BMP280;58439;51.046;13.692;2022-08-05T14:40:19;99844.28;;;47.20
70819;BMP280;58439;51.046;13.692;2022-08-05T14:42:51;99855.41;;;47.11
70819;BMP280;58439;51.046;13.692;2022-08-05T14:45:21;99850.09;;;47.31
70819;BMP280;58439;51.046;13.692;2022-08-05T14:47:49;99843.34;;;46.18
70819;BMP280;58439;51.046;13.692;2022-08-05T14:50:34;99841.94;;;46.04
70819;BMP280;58439;51.046;13.692;2022-08-05T14:53:26;99843.63;;;47.35
70819;BMP280;58439;51.046;13.692;2022-08-05T14:56:09;99835.63;;;46.58
70819;BMP280;58439;51.046;13.692;2022-08-05T14:59:02;99835.25;;;44.35
70819;BMP280;58439;51.046;13.692;2022-08-05T15:01:44;99828.06;;;45.15
70819;BMP280;58439;51.046;13.692;2022-08-05T15:04:37;99833.94;;;46.43
70819;BMP280;58439;51.046;13.692;2022-08-05T15:07:24;99835.81;;;46.46
70819;BMP280;58439;51.046;13.692;2022-08-05T15:10:11;99847.50;;;46.68
70819;BMP280;58439;51.046;13.692;2022-08-05T15:13:06;99838.31;;;45.76
70819;BMP280;58439;51.046;13.692;2022-08-05T15:15:46;99834.09;;;45.54
70819;BMP280;58439;51.046;13.692;2022-08-05T15:18:35;99835.16;;;45.56
70819;BMP280;58439;51.046;13.692;2022-08-05T15:21:10;99833.31;;;46.39
70819;BMP280;58439;51.046;13.692;2022-08-05T15:23:39;99844.50;;;45.90
70819;BMP280;58439;51.046;13.692;2022-08-05T15:26:07;99849.41;;;45.46
70819;BMP280;58439;51.046;13.692;2022-08-05T15:28:34;99847.88;;;45.85
70819;BMP280;58439;51.046;13.692;2022-08-05T15:31:09;99853.16;;;45.61
70819;BMP280;58439;51.046;13.692;2022-08-05T15:33:36;99842.06;;;45.52
70819;BMP280;58439;51.046;13.692;2022-08-05T15:36:24;99850.09;;;45.59
70819;BMP280;58439;51.046;13.692;2022-08-05T15:38:52;99844.06;;;45.60
70819;BMP280;58439;51.046;13.692;2022-08-05T15:41:41;99841.28;;;45.20
70819;BMP280;58439;51.046;13.692;2022-08-05T15:44:28;99844.44;;;44.66
70819;BMP280;58439;51.046;13.692;2022-08-05T15:46:56;99842.78;;;44.34
70819;BMP280;58439;51.046;13.692;2022-08-05T15:49:25;99852.97;;;44.00
70819;BMP280;58439;51.046;13.692;2022-08-05T15:52:09;99849.28;;;44.41
70819;BMP280;58439;51.046;13.692;2022-08-05T15:54:43;99844.25;;;44.61
70819;BMP280;58439;51.046;13.692;2022-08-05T15:57:13;99841.25;;;45.11
70819;BMP280;58439;51.046;13.692;2022-08-05T15:59:42;99846.13;;;44.17
70819;BMP280;58439;51.046;13.692;2022-08-05T16:02:09;99844.38;;;43.98
70819;BMP280;58439;51.046;13.692;2022-08-05T16:04:45;99848.00;;;43.57
70819;BMP280;58439;51.046;13.692;2022-08-05T16:07:13;99840.63;;;43.12
70819;BMP280;58439;51.046;13.692;2022-08-05T16:09:40;99849.59;;;42.87
70819;BMP280;58439;51.046;13.692;2022-08-05T16:12:09;99854.06;;;42.81
70819;BMP280;58439;51.046;13.692;2022-08-05T16:14:37;99851.41;;;43.07
70819;BMP280;58439;51.046;13.692;2022-08-05T16:17:05;99852.41;;;43.13
70819;BMP280;58439;51.046;13.692;2022-08-05T16:20:08;99860.16;;;42.89
70819;BMP280;58439;51.046;13.692;2022-08-05T16:23:45;99860.59;;;43.16
70819;BMP280;58439;51.046;13.692;2022-08-05T16:26:59;99867.13;;;43.22
70819;BMP280;58439;51.046;13.692;2022-08-05T16:29:45;99869.31;;;42.54
70819;BMP280;58439;51.046;13.692;2022-08-05T16:32:59;99868.13;;;42.22
70819;BMP280;58439;51.046;13.692;2022-08-05T16:36:33;99870.16;;;42.67
70819;BMP280;58439;51.046;13.692;2022-08-05T16:39:44;99873.88;;;42.76
70819;BMP280;58439;51.046;13.692;2022-08-05T16:43:02;99878.28;;;41.89
70819;BMP280;58439;51.046;13.692;2022-08-05T16:46:48;99880.63;;;41.51
70819;BMP280;58439;51.046;13.692;2022-08-05T16:55:23;99902.97;;;39.77
70819;BMP280;58439;51.046;13.692;2022-08-05T17:03:51;99907.75;;;38.00
70819;BMP280;58439;51.046;13.692;2022-08-05T17:08:54;99928.84;;;35.41
70819;BMP280;58439;51.046;13.692;2022-08-05T17:12:06;99933.28;;;34.49
70819;BMP280;58439;51.046;13.692;2022-08-05T17:15:06;99938.09;;;33.80
70819;BMP280;58439;51.046;13.692;2022-08-05T17:17:35;99940.94;;;33.65
70819;BMP280;58439;51.046;13.692;2022-08-05T17:20:09;99947.72;;;33.55
70819;BMP280;58439;51.046;13.692;2022-08-05T17:22:41;99944.84;;;33.25
70819;BMP280;58439;51.046;13.692;2022-08-05T17:25:10;99949.00;;;33.00
70819;BMP280;58439;51.046;13.692;2022-08-05T17:27:58;99955.66;;;33.02
70819;BMP280;58439;51.046;13.692;2022-08-05T17:30:25;99967.59;;;33.01
70819;BMP280;58439;51.046;13.692;2022-08-05T17:32:55;99964.63;;;33.06
70819;BMP280;58439;51.046;13.692;2022-08-05T17:35:22;99969.13;;;32.80
70819;BMP280;58439;51.046;13.692;2022-08-05T17:37:50;99980.22;;;32.39
70819;BMP280;58439;51.046;13.692;2022-08-05T17:40:18;99983.03;;;32.27
70819;BMP280;58439;51.046;13.692;2022-08-05T17:42:49;99998.19;;;31.85
70819;BMP280;58439;51.046;13.692;2022-08-05T17:45:21;100021.97;;;31.63
70819;BMP280;58439;51.046;13.692;2022-08-05T17:47:56;100015.88;;;31.67
70819;BMP280;58439;51.046;13.692;2022-08-05T17:50:26;100033.91;;;31.62
70819;BMP280;58439;51.046;13.692;2022-08-05T17:52:59;100035.91;;;31.78
70819;BMP280;58439;51.046;13.692;2022-08-05T17:55:28;100034.44;;;31.52
70819;BMP280;58439;51.046;13.692;2022-08-05T17:58:07;100064.00;;;31.33
70819;BMP280;58439;51.046;13.692;2022-08-05T18:00:41;100065.50;;;30.58